sensor_id;sensor_type;location;lat;lon;timestamp;P1;durP1;ratioP1;P2;durP2;ratioP2
45354;SDS011;31091;48.758;9.150;2023-01-19T00:00:34;10.30;;;6.13;;
45354;SDS011;31091;48.758;9.150;2023-01-19T00:03:19;15.02;;;5.88;;
45354;SDS011;31091;48.758;9.150;2023-01-19T00:06:05;13.90;;;6.22;;
45354;SDS011;31091;48.758;9.150;2023-01-19T00:08:51;11.27;;;5.95;;
45354;SDS011;31091;48.758;9.150;2023-01-19T00:11:36;11.57;;;5.88;;
45354;SDS011;31091;48.758;9.150;2023-01-19T00:14:22;10.02;;;5.45;;
45354;SDS011;31091;48.758;9.150;2023-01-19T00:17:07;12.05;;;6.55;;
45354;SDS011;31091;48.758;9.150;2023-01-19T00:19:52;14.82;;;7.60;;
45354;SDS011;31091;48.758;9.150;2023-01-19T00:22:37;16.05;;;7.43;;
45354;SDS011;31091;48.758;9.150;2023-01-19T00:25:23;12.43;;;6.65;;
45354;SDS011;31091;48.758;9.150;2023-01-19T00:28:12;11.77;;;6.15;;
45354;SDS011;31091;48.758;9.150;2023-01-19T00:30:58;12.77;;;6.63;;
45354;SDS011;31091;48.758;9.150;2023-01-19T00:33:43;10.55;;;5.75;;
45354;SDS011;31091;48.758;9.150;2023-01-19T00:36:33;10.88;;;6.25;;
45354;SDS011;31091;48.758;9.150;2023-01-19T00:39:18;12.25;;;6.10;;
45354;SDS011;31091;48.758;9.150;2023-01-19T00:42:04;10.75;;;6.75;;
45354;SDS011;31091;48.758;9.150;2023-01-19T00:45:12;11.65;;;6.47;;
45354;SDS011;31091;48.758;9.150;2023-01-19T00:47:57;9.80;;;6.13;;
45354;SDS011;31091;48.758;9.150;2023-01-19T00:50:42;10.98;;;6.05;;
45354;SDS011;31091;48.758;9.150;2023-01-19T00:53:27;15.52;;;5.93;;
45354;SDS011;31091;48.758;9.150;2023-01-19T00:56:16;10.55;;;5.60;;
45354;SDS011;31091;48.758;9.150;2023-01-19T00:59:01;13.43;;;6.68;;
45354;SDS011;31091;48.758;9.150;2023-01-19T01:01:47;11.38;;;6.47;;
45354;SDS011;31091;48.758;9.150;2023-01-19T01:04:32;13.32;;;6.43;;
45354;SDS011;31091;48.758;9.150;2023-01-19T01:07:18;15.85;;;7.45;;
45354;SDS011;31091;48.758;9.150;2023-01-19T01:10:03;12.00;;;7.05;;
45354;SDS011;31091;48.758;9.150;2023-01-19T01:12:48;8.98;;;5.63;;
45354;SDS011;31091;48.758;9.150;2023-01-19T01:15:33;11.70;;;6.53;;
45354;SDS011;31091;48.758;9.150;2023-01-19T01:18:19;16.17;;;7.80;;
45354;SDS011;31091;48.758;9.150;2023-01-19T01:21:06;13.60;;;6.47;;
45354;SDS011;31091;48.758;9.150;2023-01-19T01:23:51;11.48;;;6.55;;
45354;SDS011;31091;48.758;9.150;2023-01-19T01:26:37;15.18;;;6.80;;
45354;SDS011;31091;48.758;9.150;2023-01-19T01:29:22;10.88;;;6.32;;
45354;SDS011;31091;48.758;9.150;2023-01-19T01:32:07;10.57;;;6.45;;
45354;SDS011;31091;48.758;9.150;2023-01-19T01:34:53;12.15;;;7.53;;
45354;SDS011;31091;48.758;9.150;2023-01-19T01:37:39;12.02;;;5.70;;
45354;SDS011;31091;48.758;9.150;2023-01-19T01:40:24;11.77;;;6.50;;
45354;SDS011;31091;48.758;9.150;2023-01-19T01:43:10;14.45;;;6.90;;
45354;SDS011;31091;48.758;9.150;2023-01-19T01:45:56;11.70;;;6.78;;
45354;SDS011;31091;48.758;9.150;2023-01-19T01:48:43;14.85;;;7.05;;
45354;SDS011;31091;48.758;9.150;2023-01-19T01:51:47;15.50;;;6.53;;
45354;SDS011;31091;48.758;9.150;2023-01-19T01:54:33;12.88;;;6.47;;
45354;SDS011;31091;48.758;9.150;2023-01-19T01:57:18;13.75;;;6.05;;
45354;SDS011;31091;48.758;9.150;2023-01-19T02:00:04;13.10;;;7.13;;
45354;SDS011;31091;48.758;9.150;2023-01-19T02:02:50;12.45;;;6.55;;
45354;SDS011;31091;48.758;9.150;2023-01-19T02:05:35;12.88;;;7.15;;
45354;SDS011;31091;48.758;9.150;2023-01-19T02:08:24;13.38;;;7.07;;
45354;SDS011;31091;48.758;9.150;2023-01-19T02:11:30;10.07;;;6.13;;
45354;SDS011;31091;48.758;9.150;2023-01-19T02:14:35;13.68;;;6.95;;
45354;SDS011;31091;48.758;9.150;2023-01-19T02:17:23;13.00;;;6.28;;
45354;SDS011;31091;48.758;9.150;2023-01-19T02:20:08;14.43;;;6.85;;
45354;SDS011;31091;48.758;9.150;2023-01-19T02:22:54;13.35;;;6.13;;
45354;SDS011;31091;48.758;9.150;2023-01-19T02:25:42;14.52;;;7.30;;
45354;SDS011;31091;48.758;9.150;2023-01-19T02:28:27;11.27;;;5.72;;
45354;SDS011;31091;48.758;9.150;2023-01-19T02:31:13;13.52;;;6.75;;
45354;SDS011;31091;48.758;9.150;2023-01-19T02:33:59;15.15;;;6.57;;
45354;SDS011;31091;48.758;9.150;2023-01-19T02:36:52;12.95;;;6.57;;
45354;SDS011;31091;48.758;9.150;2023-01-19T02:39:46;12.30;;;6.47;;
45354;SDS011;31091;48.758;9.150;2023-01-19T02:42:45;11.95;;;6.97;;
45354;SDS011;31091;48.758;9.150;2023-01-19T02:45:32;14.65;;;7.15;;
45354;SDS011;31091;48.758;9.150;2023-01-19T02:48:17;11.05;;;6.55;;
45354;SDS011;31091;48.758;9.150;2023-01-19T02:51:09;17.48;;;7.07;;
45354;SDS011;31091;48.758;9.150;2023-01-19T02:57:11;15.65;;;6.25;;
45354;SDS011;31091;48.758;9.150;2023-01-19T03:00:05;10.63;;;5.70;;
45354;SDS011;31091;48.758;9.150;2023-01-19T03:03:13;13.82;;;6.97;;
45354;SDS011;31091;48.758;9.150;2023-01-19T03:06:08;12.13;;;6.07;;
45354;SDS011;31091;48.758;9.150;2023-01-19T03:09:03;13.77;;;6.03;;
45354;SDS011;31091;48.758;9.150;2023-01-19T03:11:53;14.13;;;6.75;;
45354;SDS011;31091;48.758;9.150;2023-01-19T03:14:44;11.70;;;6.65;;
45354;SDS011;31091;48.758;9.150;2023-01-19T03:17:31;11.30;;;6.30;;
45354;SDS011;31091;48.758;9.150;2023-01-19T03:20:18;14.35;;;6.68;;
45354;SDS011;31091;48.758;9.150;2023-01-19T03:23:06;12.20;;;6.22;;
45354;SDS011;31091;48.758;9.150;2023-01-19T03:25:52;13.27;;;6.38;;
45354;SDS011;31091;48.758;9.150;2023-01-19T03:28:39;13.50;;;6.93;;
45354;SDS011;31091;48.758;9.150;2023-01-19T03:31:26;14.43;;;6.63;;
45354;SDS011;31091;48.758;9.150;2023-01-19T03:34:12;12.32;;;7.43;;
45354;SDS011;31091;48.758;9.150;2023-01-19T03:37:00;12.45;;;7.10;;
45354;SDS011;31091;48.758;9.150;2023-01-19T03:39:47;11.90;;;5.55;;
45354;SDS011;31091;48.758;9.150;2023-01-19T03:42:32;10.82;;;6.47;;
45354;SDS011;31091;48.758;9.150;2023-01-19T03:45:17;12.02;;;7.07;;
45354;SDS011;31091;48.758;9.150;2023-01-19T03:48:03;11.55;;;6.15;;
45354;SDS011;31091;48.758;9.150;2023-01-19T03:50:49;14.35;;;6.72;;
45354;SDS011;31091;48.758;9.150;2023-01-19T03:53:35;10.23;;;5.80;;
45354;SDS011;31091;48.758;9.150;2023-01-19T03:56:21;11.57;;;6.30;;
45354;SDS011;31091;48.758;9.150;2023-01-19T03:59:07;14.40;;;7.15;;
45354;SDS011;31091;48.758;9.150;2023-01-19T04:01:52;14.27;;;7.47;;
45354;SDS011;31091;48.758;9.150;2023-01-19T04:04:38;12.48;;;6.40;;
45354;SDS011;31091;48.758;9.150;2023-01-19T04:07:24;11.32;;;6.28;;
45354;SDS011;31091;48.758;9.150;2023-01-19T04:10:09;13.23;;;6.30;;
45354;SDS011;31091;48.758;9.150;2023-01-19T04:12:57;17.98;;;8.23;;
45354;SDS011;31091;48.758;9.150;2023-01-19T04:15:42;15.13;;;6.97;;
45354;SDS011;31091;48.758;9.150;2023-01-19T04:18:28;15.50;;;6.18;;
45354;SDS011;31091;48.758;9.150;2023-01-19T04:21:13;14.65;;;7.28;;
45354;SDS011;31091;48.758;9.150;2023-01-19T04:23:59;10.75;;;5.97;;
45354;SDS011;31091;48.758;9.150;2023-01-19T04:26:45;11.55;;;6.50;;
45354;SDS011;31091;48.758;9.150;2023-01-19T04:29:30;11.48;;;5.20;;
45354;SDS011;31091;48.758;9.150;2023-01-19T04:32:15;10.63;;;5.50;;
45354;SDS011;31091;48.758;9.150;2023-01-19T04:35:00;12.00;;;5.70;;
45354;SDS011;31091;48.758;9.150;2023-01-19T04:37:46;9.73;;;5.82;;
45354;SDS011;31091;48.758;9.150;2023-01-19T04:40:31;9.70;;;4.80;;
45354;SDS011;31091;48.758;9.150;2023-01-19T04:43:17;12.25;;;5.63;;
45354;SDS011;31091;48.758;9.150;2023-01-19T04:46:03;13.85;;;6.25;;
45354;SDS011;31091;48.758;9.150;2023-01-19T04:48:48;12.85;;;5.90;;
45354;SDS011;31091;48.758;9.150;2023-01-19T04:51:33;13.18;;;6.15;;
45354;SDS011;31091;48.758;9.150;2023-01-19T04:54:19;11.82;;;5.70;;
45354;SDS011;31091;48.758;9.150;2023-01-19T04:57:05;12.35;;;5.75;;
45354;SDS011;31091;48.758;9.150;2023-01-19T04:59:50;10.60;;;5.85;;
45354;SDS011;31091;48.758;9.150;2023-01-19T05:02:35;11.60;;;6.47;;
45354;SDS011;31091;48.758;9.150;2023-01-19T05:05:20;12.30;;;6.45;;
45354;SDS011;31091;48.758;9.150;2023-01-19T05:08:06;13.20;;;5.63;;
45354;SDS011;31091;48.758;9.150;2023-01-19T05:10:51;11.35;;;6.43;;
45354;SDS011;31091;48.758;9.150;2023-01-19T05:13:36;12.35;;;6.70;;
45354;SDS011;31091;48.758;9.150;2023-01-19T05:16:21;16.20;;;6.50;;
45354;SDS011;31091;48.758;9.150;2023-01-19T05:19:07;10.63;;;6.13;;
45354;SDS011;31091;48.758;9.150;2023-01-19T05:21:52;12.23;;;7.38;;
45354;SDS011;31091;48.758;9.150;2023-01-19T05:24:38;12.05;;;6.47;;
45354;SDS011;31091;48.758;9.150;2023-01-19T05:27:23;13.75;;;6.60;;
45354;SDS011;31091;48.758;9.150;2023-01-19T05:30:09;12.93;;;6.32;;
45354;SDS011;31091;48.758;9.150;2023-01-19T05:32:54;12.15;;;6.72;;
45354;SDS011;31091;48.758;9.150;2023-01-19T05:35:40;11.38;;;6.55;;
45354;SDS011;31091;48.758;9.150;2023-01-19T05:38:25;13.20;;;6.28;;
45354;SDS011;31091;48.758;9.150;2023-01-19T05:41:11;13.80;;;6.03;;
45354;SDS011;31091;48.758;9.150;2023-01-19T05:43:56;11.55;;;6.00;;
45354;SDS011;31091;48.758;9.150;2023-01-19T05:46:42;15.75;;;7.68;;
45354;SDS011;31091;48.758;9.150;2023-01-19T05:49:27;14.75;;;6.53;;
45354;SDS011;31091;48.758;9.150;2023-01-19T05:52:12;14.55;;;7.50;;
45354;SDS011;31091;48.758;9.150;2023-01-19T05:54:57;13.82;;;7.20;;
45354;SDS011;31091;48.758;9.150;2023-01-19T05:57:42;12.05;;;7.05;;
45354;SDS011;31091;48.758;9.150;2023-01-19T06:00:28;12.45;;;6.50;;
45354;SDS011;31091;48.758;9.150;2023-01-19T06:03:13;17.70;;;6.88;;
45354;SDS011;31091;48.758;9.150;2023-01-19T06:05:58;10.85;;;6.25;;
45354;SDS011;31091;48.758;9.150;2023-01-19T06:08:44;11.90;;;6.72;;
45354;SDS011;31091;48.758;9.150;2023-01-19T06:11:29;15.63;;;7.07;;
45354;SDS011;31091;48.758;9.150;2023-01-19T06:14:15;10.93;;;6.15;;
45354;SDS011;31091;48.758;9.150;2023-01-19T06:17:00;13.40;;;7.00;;
45354;SDS011;31091;48.758;9.150;2023-01-19T06:19:45;14.88;;;7.20;;
45354;SDS011;31091;48.758;9.150;2023-01-19T06:22:30;13.15;;;6.25;;
45354;SDS011;31091;48.758;9.150;2023-01-19T06:25:16;14.93;;;6.85;;
45354;SDS011;31091;48.758;9.150;2023-01-19T06:28:01;12.85;;;7.28;;
45354;SDS011;31091;48.758;9.150;2023-01-19T06:30:47;16.52;;;8.05;;
45354;SDS011;31091;48.758;9.150;2023-01-19T06:33:32;14.05;;;6.95;;
45354;SDS011;31091;48.758;9.150;2023-01-19T06:36:18;12.00;;;7.07;;
45354;SDS011;31091;48.758;9.150;2023-01-19T06:39:03;13.65;;;7.30;;
45354;SDS011;31091;48.758;9.150;2023-01-19T06:41:50;13.77;;;7.10;;
45354;SDS011;31091;48.758;9.150;2023-01-19T06:44:35;27.65;;;8.85;;
45354;SDS011;31091;48.758;9.150;2023-01-19T06:47:20;14.57;;;7.95;;
45354;SDS011;31091;48.758;9.150;2023-01-19T06:50:06;12.57;;;6.60;;
45354;SDS011;31091;48.758;9.150;2023-01-19T06:52:51;14.65;;;7.15;;
45354;SDS011;31091;48.758;9.150;2023-01-19T06:55:37;13.88;;;6.40;;
45354;SDS011;31091;48.758;9.150;2023-01-19T06:58:23;13.02;;;6.82;;
45354;SDS011;31091;48.758;9.150;2023-01-19T07:01:08;15.48;;;7.20;;
45354;SDS011;31091;48.758;9.150;2023-01-19T07:03:53;11.68;;;7.15;;
45354;SDS011;31091;48.758;9.150;2023-01-19T07:06:38;14.45;;;7.38;;
45354;SDS011;31091;48.758;9.150;2023-01-19T07:09:24;14.68;;;7.68;;
45354;SDS011;31091;48.758;9.150;2023-01-19T07:12:09;14.68;;;6.95;;
45354;SDS011;31091;48.758;9.150;2023-01-19T07:14:54;13.98;;;7.30;;
45354;SDS011;31091;48.758;9.150;2023-01-19T07:17:40;14.32;;;6.72;;
45354;SDS011;31091;48.758;9.150;2023-01-19T07:20:26;12.27;;;7.13;;
45354;SDS011;31091;48.758;9.150;2023-01-19T07:23:11;15.88;;;7.50;;
45354;SDS011;31091;48.758;9.150;2023-01-19T07:25:56;15.07;;;7.25;;
45354;SDS011;31091;48.758;9.150;2023-01-19T07:28:42;12.70;;;6.93;;
45354;SDS011;31091;48.758;9.150;2023-01-19T07:31:27;12.20;;;6.80;;
45354;SDS011;31091;48.758;9.150;2023-01-19T07:34:12;13.43;;;6.75;;
45354;SDS011;31091;48.758;9.150;2023-01-19T07:36:57;15.00;;;7.00;;
45354;SDS011;31091;48.758;9.150;2023-01-19T07:39:43;13.73;;;7.30;;
45354;SDS011;31091;48.758;9.150;2023-01-19T07:42:28;14.38;;;8.07;;
45354;SDS011;31091;48.758;9.150;2023-01-19T07:45:14;11.80;;;6.40;;
45354;SDS011;31091;48.758;9.150;2023-01-19T07:47:59;14.13;;;6.78;;
45354;SDS011;31091;48.758;9.150;2023-01-19T07:50:45;14.13;;;6.65;;
45354;SDS011;31091;48.758;9.150;2023-01-19T07:53:30;15.45;;;7.80;;
45354;SDS011;31091;48.758;9.150;2023-01-19T07:56:16;12.40;;;6.80;;
45354;SDS011;31091;48.758;9.150;2023-01-19T07:59:01;12.05;;;6.82;;
45354;SDS011;31091;48.758;9.150;2023-01-19T08:01:46;12.68;;;7.50;;
45354;SDS011;31091;48.758;9.150;2023-01-19T08:04:32;13.75;;;6.20;;
45354;SDS011;31091;48.758;9.150;2023-01-19T08:07:17;11.57;;;6.15;;
45354;SDS011;31091;48.758;9.150;2023-01-19T08:10:02;17.92;;;7.00;;
45354;SDS011;31091;48.758;9.150;2023-01-19T08:12:47;13.80;;;7.05;;
45354;SDS011;31091;48.758;9.150;2023-01-19T08:15:32;18.65;;;7.05;;
45354;SDS011;31091;48.758;9.150;2023-01-19T08:18:18;12.45;;;6.20;;
45354;SDS011;31091;48.758;9.150;2023-01-19T08:21:04;12.40;;;5.93;;
45354;SDS011;31091;48.758;9.150;2023-01-19T08:23:53;10.48;;;5.25;;
45354;SDS011;31091;48.758;9.150;2023-01-19T08:26:38;10.83;;;5.50;;
45354;SDS011;31091;48.758;9.150;2023-01-19T08:29:23;11.45;;;5.25;;
45354;SDS011;31091;48.758;9.150;2023-01-19T08:32:08;9.07;;;4.90;;
45354;SDS011;31091;48.758;9.150;2023-01-19T08:34:53;9.68;;;5.03;;
45354;SDS011;31091;48.758;9.150;2023-01-19T08:37:39;9.63;;;5.72;;
45354;SDS011;31091;48.758;9.150;2023-01-19T08:40:24;9.38;;;5.03;;
45354;SDS011;31091;48.758;9.150;2023-01-19T08:43:13;10.20;;;5.38;;
45354;SDS011;31091;48.758;9.150;2023-01-19T08:45:59;9.15;;;5.25;;
45354;SDS011;31091;48.758;9.150;2023-01-19T08:48:44;14.18;;;4.85;;
45354;SDS011;31091;48.758;9.150;2023-01-19T08:51:29;10.23;;;5.20;;
45354;SDS011;31091;48.758;9.150;2023-01-19T08:54:14;8.63;;;4.05;;
45354;SDS011;31091;48.758;9.150;2023-01-19T08:57:00;9.93;;;4.22;;
45354;SDS011;31091;48.758;9.150;2023-01-19T08:59:46;8.40;;;4.40;;
45354;SDS011;31091;48.758;9.150;2023-01-19T09:02:31;10.43;;;5.10;;
45354;SDS011;31091;48.758;9.150;2023-01-19T09:05:16;8.38;;;4.82;;
45354;SDS011;31091;48.758;9.150;2023-01-19T09:08:02;8.40;;;4.75;;
45354;SDS011;31091;48.758;9.150;2023-01-19T09:10:48;10.38;;;5.90;;
45354;SDS011;31091;48.758;9.150;2023-01-19T09:13:34;10.70;;;4.95;;
45354;SDS011;31091;48.758;9.150;2023-01-19T09:16:19;11.18;;;4.82;;
45354;SDS011;31091;48.758;9.150;2023-01-19T09:19:04;7.70;;;4.32;;
45354;SDS011;31091;48.758;9.150;2023-01-19T09:21:52;9.88;;;4.93;;
45354;SDS011;31091;48.758;9.150;2023-01-19T09:24:38;8.23;;;4.22;;
45354;SDS011;31091;48.758;9.150;2023-01-19T09:27:24;8.07;;;4.00;;
45354;SDS011;31091;48.758;9.150;2023-01-19T09:30:09;9.25;;;4.35;;
45354;SDS011;31091;48.758;9.150;2023-01-19T09:32:59;8.38;;;4.55;;
45354;SDS011;31091;48.758;9.150;2023-01-19T09:38:30;12.05;;;4.13;;
45354;SDS011;31091;48.758;9.150;2023-01-19T09:41:20;7.78;;;4.28;;
45354;SDS011;31091;48.758;9.150;2023-01-19T09:44:07;7.82;;;4.03;;
45354;SDS011;31091;48.758;9.150;2023-01-19T09:46:59;8.95;;;4.53;;
45354;SDS011;31091;48.758;9.150;2023-01-19T09:49:47;9.25;;;4.30;;
45354;SDS011;31091;48.758;9.150;2023-01-19T09:52:38;9.50;;;4.75;;
45354;SDS011;31091;48.758;9.150;2023-01-19T09:55:25;8.35;;;4.68;;
45354;SDS011;31091;48.758;9.150;2023-01-19T09:58:12;8.25;;;4.05;;
45354;SDS011;31091;48.758;9.150;2023-01-19T10:01:04;11.07;;;4.57;;
45354;SDS011;31091;48.758;9.150;2023-01-19T10:03:53;7.35;;;4.03;;
45354;SDS011;31091;48.758;9.150;2023-01-19T10:06:41;6.90;;;3.80;;
45354;SDS011;31091;48.758;9.150;2023-01-19T10:09:39;8.10;;;3.95;;
45354;SDS011;31091;48.758;9.150;2023-01-19T10:12:47;8.57;;;4.32;;
45354;SDS011;31091;48.758;9.150;2023-01-19T10:15:39;7.95;;;4.20;;
45354;SDS011;31091;48.758;9.150;2023-01-19T10:24:28;10.25;;;4.82;;
45354;SDS011;31091;48.758;9.150;2023-01-19T10:27:17;9.38;;;4.22;;
45354;SDS011;31091;48.758;9.150;2023-01-19T10:30:05;8.75;;;3.70;;
45354;SDS011;31091;48.758;9.150;2023-01-19T10:32:51;8.38;;;3.97;;
45354;SDS011;31091;48.758;9.150;2023-01-19T10:35:36;7.68;;;4.07;;
45354;SDS011;31091;48.758;9.150;2023-01-19T10:38:21;8.20;;;4.20;;
45354;SDS011;31091;48.758;9.150;2023-01-19T10:41:10;7.57;;;4.20;;
45354;SDS011;31091;48.758;9.150;2023-01-19T10:44:01;10.75;;;4.78;;
45354;SDS011;31091;48.758;9.150;2023-01-19T10:46:48;6.88;;;4.00;;
45354;SDS011;31091;48.758;9.150;2023-01-19T10:49:37;11.43;;;4.35;;
45354;SDS011;31091;48.758;9.150;2023-01-19T10:52:33;8.45;;;4.38;;
45354;SDS011;31091;48.758;9.150;2023-01-19T10:55:24;8.30;;;4.38;;
45354;SDS011;31091;48.758;9.150;2023-01-19T10:58:26;7.43;;;4.28;;
45354;SDS011;31091;48.758;9.150;2023-01-19T11:01:16;7.45;;;4.35;;
45354;SDS011;31091;48.758;9.150;2023-01-19T11:04:18;8.23;;;3.72;;
45354;SDS011;31091;48.758;9.150;2023-01-19T11:07:25;10.27;;;5.05;;
45354;SDS011;31091;48.758;9.150;2023-01-19T11:15:54;9.23;;;4.57;;
45354;SDS011;31091;48.758;9.150;2023-01-19T11:18:42;9.38;;;3.97;;
45354;SDS011;31091;48.758;9.150;2023-01-19T11:21:28;8.90;;;4.03;;
45354;SDS011;31091;48.758;9.150;2023-01-19T11:24:14;8.40;;;3.80;;
45354;SDS011;31091;48.758;9.150;2023-01-19T11:27:00;7.18;;;3.67;;
45354;SDS011;31091;48.758;9.150;2023-01-19T11:29:48;7.22;;;4.40;;
45354;SDS011;31091;48.758;9.150;2023-01-19T11:32:34;7.25;;;3.58;;
45354;SDS011;31091;48.758;9.150;2023-01-19T11:35:54;7.65;;;3.60;;
45354;SDS011;31091;48.758;9.150;2023-01-19T11:38:39;13.70;;;4.50;;
45354;SDS011;31091;48.758;9.150;2023-01-19T11:41:28;7.00;;;4.25;;
45354;SDS011;31091;48.758;9.150;2023-01-19T11:44:19;10.30;;;3.97;;
45354;SDS011;31091;48.758;9.150;2023-01-19T11:47:05;9.43;;;3.90;;
45354;SDS011;31091;48.758;9.150;2023-01-19T11:49:57;7.78;;;4.65;;
45354;SDS011;31091;48.758;9.150;2023-01-19T11:53:04;11.27;;;4.88;;
45354;SDS011;31091;48.758;9.150;2023-01-19T11:58:40;10.15;;;3.80;;
45354;SDS011;31091;48.758;9.150;2023-01-19T12:01:35;6.68;;;3.60;;
45354;SDS011;31091;48.758;9.150;2023-01-19T12:04:32;30.48;;;3.80;;
45354;SDS011;31091;48.758;9.150;2023-01-19T12:07:21;7.25;;;4.00;;
45354;SDS011;31091;48.758;9.150;2023-01-19T12:10:15;8.93;;;3.90;;
45354;SDS011;31091;48.758;9.150;2023-01-19T12:13:02;6.43;;;3.63;;
45354;SDS011;31091;48.758;9.150;2023-01-19T12:15:50;7.13;;;3.60;;
45354;SDS011;31091;48.758;9.150;2023-01-19T12:18:41;7.25;;;3.80;;
45354;SDS011;31091;48.758;9.150;2023-01-19T12:21:28;6.75;;;3.38;;
45354;SDS011;31091;48.758;9.150;2023-01-19T12:24:15;6.13;;;3.83;;
45354;SDS011;31091;48.758;9.150;2023-01-19T12:27:04;9.27;;;4.30;;
45354;SDS011;31091;48.758;9.150;2023-01-19T12:29:51;6.10;;;3.55;;
45354;SDS011;31091;48.758;9.150;2023-01-19T12:32:38;6.68;;;4.15;;
45354;SDS011;31091;48.758;9.150;2023-01-19T12:41:37;7.25;;;3.72;;
45354;SDS011;31091;48.758;9.150;2023-01-19T12:44:23;5.82;;;3.53;;
45354;SDS011;31091;48.758;9.150;2023-01-19T12:49:55;7.68;;;3.47;;
45354;SDS011;31091;48.758;9.150;2023-01-19T12:52:50;7.37;;;3.87;;
45354;SDS011;31091;48.758;9.150;2023-01-19T12:55:36;6.28;;;3.80;;
45354;SDS011;31091;48.758;9.150;2023-01-19T12:58:23;8.13;;;3.88;;
45354;SDS011;31091;48.758;9.150;2023-01-19T13:01:13;7.45;;;3.60;;
45354;SDS011;31091;48.758;9.150;2023-01-19T13:04:05;13.48;;;4.15;;
45354;SDS011;31091;48.758;9.150;2023-01-19T13:07:10;7.78;;;3.42;;
45354;SDS011;31091;48.758;9.150;2023-01-19T13:13:22;7.00;;;3.33;;
45354;SDS011;31091;48.758;9.150;2023-01-19T13:18:57;8.32;;;3.63;;
45354;SDS011;31091;48.758;9.150;2023-01-19T13:21:47;5.57;;;3.33;;
45354;SDS011;31091;48.758;9.150;2023-01-19T13:25:03;8.07;;;3.08;;
45354;SDS011;31091;48.758;9.150;2023-01-19T13:27:39;7.55;;;3.63;;
45354;SDS011;31091;48.758;9.150;2023-01-19T13:30:25;7.60;;;3.28;;
45354;SDS011;31091;48.758;9.150;2023-01-19T13:33:16;6.70;;;3.30;;
45354;SDS011;31091;48.758;9.150;2023-01-19T13:36:03;8.27;;;2.90;;
45354;SDS011;31091;48.758;9.150;2023-01-19T13:38:49;7.05;;;3.65;;
45354;SDS011;31091;48.758;9.150;2023-01-19T13:41:35;6.38;;;3.40;;
45354;SDS011;31091;48.758;9.150;2023-01-19T13:44:25;8.30;;;3.33;;
45354;SDS011;31091;48.758;9.150;2023-01-19T13:47:14;7.15;;;3.63;;
45354;SDS011;31091;48.758;9.150;2023-01-19T13:49:59;6.75;;;3.20;;
45354;SDS011;31091;48.758;9.150;2023-01-19T13:52:45;7.40;;;3.80;;
45354;SDS011;31091;48.758;9.150;2023-01-19T13:55:32;8.93;;;4.05;;
45354;SDS011;31091;48.758;9.150;2023-01-19T13:58:21;6.85;;;3.80;;
45354;SDS011;31091;48.758;9.150;2023-01-19T14:01:18;6.65;;;4.05;;
45354;SDS011;31091;48.758;9.150;2023-01-19T14:04:03;6.25;;;3.70;;
45354;SDS011;31091;48.758;9.150;2023-01-19T14:06:49;12.07;;;5.15;;
45354;SDS011;31091;48.758;9.150;2023-01-19T14:09:38;7.40;;;4.35;;
45354;SDS011;31091;48.758;9.150;2023-01-19T14:12:23;8.13;;;4.03;;
45354;SDS011;31091;48.758;9.150;2023-01-19T14:15:12;6.90;;;3.83;;
45354;SDS011;31091;48.758;9.150;2023-01-19T14:21:00;10.68;;;4.93;;
45354;SDS011;31091;48.758;9.150;2023-01-19T14:23:47;7.10;;;3.90;;
45354;SDS011;31091;48.758;9.150;2023-01-19T14:29:29;8.27;;;4.40;;
45354;SDS011;31091;48.758;9.150;2023-01-19T14:37:48;7.15;;;4.00;;
45354;SDS011;31091;48.758;9.150;2023-01-19T14:40:34;9.50;;;4.45;;
45354;SDS011;31091;48.758;9.150;2023-01-19T14:43:21;8.15;;;4.60;;
45354;SDS011;31091;48.758;9.150;2023-01-19T14:46:17;10.63;;;5.25;;
45354;SDS011;31091;48.758;9.150;2023-01-19T14:49:04;9.25;;;4.30;;
45354;SDS011;31091;48.758;9.150;2023-01-19T14:51:50;7.70;;;4.10;;
45354;SDS011;31091;48.758;9.150;2023-01-19T14:54:37;7.55;;;3.97;;
45354;SDS011;31091;48.758;9.150;2023-01-19T14:57:23;10.90;;;4.38;;
45354;SDS011;31091;48.758;9.150;2023-01-19T15:00:13;6.97;;;3.83;;
45354;SDS011;31091;48.758;9.150;2023-01-19T15:02:59;9.30;;;4.25;;
45354;SDS011;31091;48.758;9.150;2023-01-19T15:05:45;9.55;;;4.30;;
45354;SDS011;31091;48.758;9.150;2023-01-19T15:08:31;9.02;;;4.70;;
45354;SDS011;31091;48.758;9.150;2023-01-19T15:14:15;8.65;;;4.57;;
45354;SDS011;31091;48.758;9.150;2023-01-19T15:17:01;7.75;;;4.20;;
45354;SDS011;31091;48.758;9.150;2023-01-19T15:19:46;10.43;;;4.30;;
45354;SDS011;31091;48.758;9.150;2023-01-19T15:22:31;8.23;;;4.53;;
45354;SDS011;31091;48.758;9.150;2023-01-19T15:25:18;8.45;;;4.57;;
45354;SDS011;31091;48.758;9.150;2023-01-19T15:28:08;9.70;;;5.22;;
45354;SDS011;31091;48.758;9.150;2023-01-19T15:30:54;8.43;;;4.95;;
45354;SDS011;31091;48.758;9.150;2023-01-19T15:33:39;12.23;;;5.40;;
45354;SDS011;31091;48.758;9.150;2023-01-19T15:36:27;14.48;;;5.15;;
45354;SDS011;31091;48.758;9.150;2023-01-19T15:39:12;9.52;;;3.90;;
45354;SDS011;31091;48.758;9.150;2023-01-19T15:41:57;9.43;;;5.38;;
45354;SDS011;31091;48.758;9.150;2023-01-19T15:44:43;9.02;;;4.47;;
45354;SDS011;31091;48.758;9.150;2023-01-19T15:47:29;8.70;;;4.70;;
45354;SDS011;31091;48.758;9.150;2023-01-19T15:50:14;9.40;;;4.82;;
45354;SDS011;31091;48.758;9.150;2023-01-19T15:52:59;8.77;;;4.95;;
45354;SDS011;31091;48.758;9.150;2023-01-19T15:55:48;9.90;;;4.68;;
45354;SDS011;31091;48.758;9.150;2023-01-19T15:58:33;10.40;;;5.57;;
45354;SDS011;31091;48.758;9.150;2023-01-19T16:01:20;11.15;;;4.80;;
45354;SDS011;31091;48.758;9.150;2023-01-19T16:04:06;10.20;;;5.57;;
45354;SDS011;31091;48.758;9.150;2023-01-19T16:06:51;11.00;;;5.10;;
45354;SDS011;31091;48.758;9.150;2023-01-19T16:09:37;9.30;;;4.80;;
45354;SDS011;31091;48.758;9.150;2023-01-19T16:12:22;8.25;;;4.43;;
45354;SDS011;31091;48.758;9.150;2023-01-19T16:15:07;9.25;;;4.53;;
45354;SDS011;31091;48.758;9.150;2023-01-19T16:17:52;7.22;;;3.92;;
45354;SDS011;31091;48.758;9.150;2023-01-19T16:20:38;12.35;;;5.40;;
45354;SDS011;31091;48.758;9.150;2023-01-19T16:23:23;7.55;;;4.25;;
45354;SDS011;31091;48.758;9.150;2023-01-19T16:26:22;6.60;;;3.88;;
45354;SDS011;31091;48.758;9.150;2023-01-19T16:29:08;9.15;;;4.53;;
45354;SDS011;31091;48.758;9.150;2023-01-19T16:31:54;6.38;;;3.63;;
45354;SDS011;31091;48.758;9.150;2023-01-19T16:34:40;8.52;;;4.70;;
45354;SDS011;31091;48.758;9.150;2023-01-19T16:37:25;7.85;;;4.15;;
45354;SDS011;31091;48.758;9.150;2023-01-19T16:40:10;7.97;;;4.75;;
45354;SDS011;31091;48.758;9.150;2023-01-19T16:42:56;7.35;;;4.25;;
45354;SDS011;31091;48.758;9.150;2023-01-19T16:45:58;9.43;;;4.68;;
45354;SDS011;31091;48.758;9.150;2023-01-19T16:48:43;7.10;;;3.80;;
45354;SDS011;31091;48.758;9.150;2023-01-19T16:51:29;11.73;;;4.55;;
45354;SDS011;31091;48.758;9.150;2023-01-19T16:54:21;8.60;;;3.72;;
45354;SDS011;31091;48.758;9.150;2023-01-19T16:57:07;7.32;;;3.92;;
45354;SDS011;31091;48.758;9.150;2023-01-19T16:59:53;7.85;;;3.63;;
45354;SDS011;31091;48.758;9.150;2023-01-19T17:02:38;11.55;;;3.58;;
45354;SDS011;31091;48.758;9.150;2023-01-19T17:05:23;6.88;;;3.88;;
45354;SDS011;31091;48.758;9.150;2023-01-19T17:08:08;9.80;;;4.35;;
45354;SDS011;31091;48.758;9.150;2023-01-19T17:10:53;11.90;;;4.70;;
45354;SDS011;31091;48.758;9.150;2023-01-19T17:13:39;9.23;;;3.97;;
45354;SDS011;31091;48.758;9.150;2023-01-19T17:16:25;6.60;;;3.35;;
45354;SDS011;31091;48.758;9.150;2023-01-19T17:19:17;6.68;;;3.33;;
45354;SDS011;31091;48.758;9.150;2023-01-19T17:22:03;8.15;;;4.13;;
45354;SDS011;31091;48.758;9.150;2023-01-19T17:24:48;6.43;;;4.00;;
45354;SDS011;31091;48.758;9.150;2023-01-19T17:27:33;15.27;;;6.65;;
45354;SDS011;31091;48.758;9.150;2023-01-19T17:30:20;11.23;;;5.45;;